createdAt,value
2023-03-21T00:00:29.251Z,8.40
2023-03-21T00:02:55.748Z,7.20
2023-03-21T00:05:22.530Z,9.00
2023-03-21T00:07:49.004Z,7.85
2023-03-21T00:10:23.989Z,8.00
2023-03-21T00:12:58.436Z,8.20
2023-03-21T00:15:30.597Z,8.25
2023-03-21T00:18:04.297Z,6.07
2023-03-21T00:20:34.220Z,8.20
2023-03-21T00:23:01.890Z,7.40
2023-03-21T00:25:28.435Z,6.00
2023-03-21T00:28:07.469Z,8.85
2023-03-21T00:30:34.859Z,7.50
2023-03-21T00:33:05.940Z,8.10
2023-03-21T00:36:05.827Z,6.88
2023-03-21T00:38:26.594Z,7.17
2023-03-21T00:40:53.537Z,7.30
2023-03-21T00:43:23.328Z,7.00
2023-03-21T00:45:51.371Z,6.78
2023-03-21T00:48:18.661Z,8.07
2023-03-21T00:50:46.893Z,6.13
2023-03-21T00:53:15.284Z,7.30
2023-03-21T00:55:41.882Z,6.50
2023-03-21T00:58:08.324Z,7.00
2023-03-21T01:00:37.180Z,6.45
2023-03-21T01:03:21.472Z,6.23
2023-03-21T01:06:07.424Z,6.78
2023-03-21T01:08:51.269Z,8.20
2023-03-21T01:11:20.911Z,6.75
2023-03-21T01:13:54.632Z,8.57
2023-03-21T01:16:24.938Z,9.90
2023-03-21T01:18:51.445Z,8.70
2023-03-21T01:21:18.437Z,8.52
2023-03-21T01:23:45.357Z,8.27
2023-03-21T01:26:12.989Z,8.05
2023-03-21T01:28:42.106Z,9.20
2023-03-21T01:31:09.729Z,9.10
2023-03-21T01:33:36.366Z,9.00
2023-03-21T01:36:12.661Z,9.43
2023-03-21T01:38:41.556Z,9.02
2023-03-21T01:41:19.277Z,10.40
2023-03-21T01:43:46.507Z,10.80
2023-03-21T01:46:47.794Z,9.52
2023-03-21T01:49:29.535Z,9.38
2023-03-21T01:52:13.105Z,10.68
2023-03-21T01:54:43.584Z,9.67
2023-03-21T01:57:16.443Z,12.10
2023-03-21T01:59:46.276Z,11.40
2023-03-21T02:02:26.663Z,11.80
2023-03-21T02:04:57.978Z,12.48
2023-03-21T02:07:36.422Z,13.10
2023-03-21T02:10:07.730Z,12.32
2023-03-21T02:12:34.154Z,13.63
2023-03-21T02:15:00.804Z,13.70
2023-03-21T02:17:34.368Z,13.00
2023-03-21T02:20:38.063Z,13.10
2023-03-21T02:23:32.526Z,11.60
2023-03-21T02:26:42.270Z,12.05
2023-03-21T02:29:28.214Z,12.95
2023-03-21T02:32:34.857Z,12.32
2023-03-21T02:35:08.865Z,12.70
2023-03-21T02:38:00.202Z,12.88
2023-03-21T02:40:34.305Z,11.98
2023-03-21T02:43:22.672Z,11.73
2023-03-21T02:45:54.627Z,13.23
2023-03-21T02:48:50.927Z,12.70
2023-03-21T02:51:21.950Z,12.52
2023-03-21T02:54:13.012Z,12.45
2023-03-21T02:56:41.375Z,11.63
2023-03-21T02:59:08.737Z,11.70
2023-03-21T03:01:35.513Z,11.67
2023-03-21T03:04:02.016Z,11.40
2023-03-21T03:06:41.993Z,11.93
2023-03-21T03:09:39.288Z,12.15
2023-03-21T03:12:32.037Z,10.57
2023-03-21T03:15:17.756Z,12.30
2023-03-21T03:17:47.136Z,11.38
2023-03-21T03:20:30.425Z,10.65
2023-03-21T03:22:59.767Z,10.75
2023-03-21T03:25:42.884Z,11.18
2023-03-21T03:28:13.195Z,9.87
2023-03-21T03:30:48.817Z,10.93
2023-03-21T03:33:26.677Z,11.02
2023-03-21T03:36:05.115Z,11.68
2023-03-21T03:38:35.500Z,10.43
2023-03-21T03:41:11.067Z,11.23
2023-03-21T03:43:48.501Z,11.05
2023-03-21T03:46:19.345Z,11.13
2023-03-21T03:49:00.761Z,10.85
2023-03-21T03:51:37.239Z,12.00
2023-03-21T03:54:09.965Z,12.17
2023-03-21T03:56:37.442Z,12.10
2023-03-21T03:59:05.186Z,12.30
2023-03-21T04:01:31.634Z,12.00
2023-03-21T04:04:11.917Z,11.68
2023-03-21T04:06:39.600Z,11.77
2023-03-21T04:09:19.267Z,11.88
2023-03-21T04:11:47.733Z,12.50
2023-03-21T04:14:14.225Z,10.95
2023-03-21T04:16:40.708Z,12.07
2023-03-21T04:19:07.150Z,11.80
2023-03-21T04:21:33.922Z,11.40
2023-03-21T04:24:00.575Z,10.82
2023-03-21T04:26:32.840Z,10.82
2023-03-21T04:29:00.814Z,10.48
2023-03-21T04:31:28.504Z,11.20
2023-03-21T04:33:56.071Z,11.32
2023-03-21T04:36:27.315Z,11.25
2023-03-21T04:38:54.097Z,11.68
2023-03-21T04:41:20.608Z,12.32
2023-03-21T04:43:47.430Z,11.10
2023-03-21T04:46:13.980Z,12.10
2023-03-21T04:48:40.548Z,11.85
2023-03-21T04:51:07.061Z,11.07
2023-03-21T04:53:33.528Z,11.27
2023-03-21T04:56:00.682Z,11.63
2023-03-21T04:58:27.454Z,12.40
2023-03-21T05:00:53.988Z,11.32
2023-03-21T05:03:21.441Z,10.93
2023-03-21T05:05:48.126Z,10.65
2023-03-21T05:08:15.873Z,10.60
2023-03-21T05:10:43.071Z,10.80
2023-03-21T05:13:09.601Z,8.73
2023-03-21T05:15:36.124Z,10.48
2023-03-21T05:18:11.268Z,9.75
2023-03-21T05:20:42.652Z,8.27
2023-03-21T05:23:12.660Z,8.30
2023-03-21T05:25:40.199Z,7.97
2023-03-21T05:28:07.800Z,8.38
2023-03-21T05:30:34.711Z,7.85
2023-03-21T05:33:01.337Z,7.93
2023-03-21T05:35:28.241Z,7.07
2023-03-21T05:37:54.874Z,7.47
2023-03-21T05:40:21.722Z,7.53
2023-03-21T05:42:48.337Z,6.82
2023-03-21T05:45:15.848Z,6.80
2023-03-21T05:47:42.237Z,8.40
2023-03-21T05:50:09.629Z,6.93
2023-03-21T05:52:36.073Z,7.38
2023-03-21T05:55:02.632Z,6.47
2023-03-21T05:57:29.543Z,6.83
2023-03-21T05:59:56.080Z,7.22
2023-03-21T06:02:22.560Z,7.35
2023-03-21T06:04:48.963Z,6.70
2023-03-21T06:07:15.325Z,7.15
2023-03-21T06:09:41.870Z,6.07
2023-03-21T06:12:08.337Z,7.15
2023-03-21T06:14:34.707Z,6.35
2023-03-21T06:17:01.141Z,6.57
2023-03-21T06:19:27.571Z,7.18
2023-03-21T06:21:53.949Z,6.20
2023-03-21T06:24:21.430Z,6.32
2023-03-21T06:26:48.318Z,6.50
2023-03-21T06:29:15.180Z,6.38
2023-03-21T06:31:41.665Z,6.22
2023-03-21T06:34:10.278Z,6.37
2023-03-21T06:36:36.696Z,7.13
2023-03-21T06:39:03.828Z,6.38
2023-03-21T06:41:30.296Z,5.80
2023-03-21T06:43:56.689Z,5.35
2023-03-21T06:46:23.049Z,5.97
2023-03-21T06:48:49.503Z,5.38
2023-03-21T06:51:16.119Z,4.97
2023-03-21T06:53:42.919Z,5.95
2023-03-21T06:56:10.813Z,5.72
2023-03-21T06:58:37.290Z,6.57
2023-03-21T07:01:04.401Z,5.50
2023-03-21T07:03:31.524Z,5.88
2023-03-21T07:05:57.959Z,6.03
2023-03-21T07:08:24.442Z,6.60
2023-03-21T07:10:50.882Z,5.93
2023-03-21T07:13:17.310Z,6.70
2023-03-21T07:15:43.701Z,5.65
2023-03-21T07:18:10.359Z,5.38
2023-03-21T07:20:38.086Z,6.07
2023-03-21T07:23:05.654Z,4.87
2023-03-21T07:25:32.215Z,5.80
2023-03-21T07:27:58.780Z,5.45
2023-03-21T07:30:25.328Z,5.45
2023-03-21T07:32:53.331Z,5.93
2023-03-21T07:35:19.807Z,5.13
2023-03-21T07:37:46.214Z,6.00
2023-03-21T07:40:13.251Z,4.88
2023-03-21T07:42:40.993Z,4.72
2023-03-21T07:45:08.787Z,5.20
2023-03-21T07:47:35.976Z,5.00
2023-03-21T07:50:04.455Z,4.55
2023-03-21T07:52:33.128Z,5.07
2023-03-21T07:54:59.502Z,4.95
2023-03-21T07:57:26.071Z,4.25
2023-03-21T07:59:52.569Z,5.23
2023-03-21T08:02:19.456Z,4.97
2023-03-21T08:04:46.128Z,4.90
2023-03-21T08:07:12.871Z,5.60
2023-03-21T08:09:39.334Z,4.40
2023-03-21T08:12:08.235Z,5.70
2023-03-21T08:14:35.845Z,6.05
2023-03-21T08:17:03.651Z,5.40
2023-03-21T08:19:31.008Z,5.40
2023-03-21T08:22:01.194Z,4.30
2023-03-21T08:24:28.578Z,4.70
2023-03-21T08:26:54.958Z,4.65
2023-03-21T08:29:21.801Z,4.60
2023-03-21T08:31:48.337Z,4.60
2023-03-21T08:34:15.398Z,4.65
2023-03-21T08:36:41.876Z,4.57
2023-03-21T08:39:08.278Z,4.13
2023-03-21T08:41:37.318Z,4.75
2023-03-21T08:44:04.789Z,4.25
2023-03-21T08:46:31.414Z,4.57
2023-03-21T08:48:58.141Z,4.70
2023-03-21T08:51:24.571Z,3.45
2023-03-21T08:53:51.307Z,4.05
2023-03-21T08:56:18.252Z,3.35
2023-03-21T08:58:44.924Z,3.50
2023-03-21T09:01:15.481Z,3.83
2023-03-21T09:03:42.581Z,3.78
2023-03-21T09:06:10.666Z,3.70
2023-03-21T09:08:41.882Z,4.10
2023-03-21T09:11:09.297Z,3.63
2023-03-21T09:13:35.862Z,3.63
2023-03-21T09:16:02.541Z,3.95
2023-03-21T09:18:49.470Z,3.97
2023-03-21T09:21:18.343Z,2.85
2023-03-21T09:23:45.362Z,3.50
2023-03-21T09:26:12.457Z,3.53
2023-03-21T09:28:39.159Z,2.85
2023-03-21T09:31:06.481Z,2.80
2023-03-21T09:33:33.178Z,2.97
2023-03-21T09:36:00.417Z,2.60
2023-03-21T09:38:30.521Z,3.20
2023-03-21T09:41:11.797Z,3.30
2023-03-21T09:43:59.913Z,3.80
2023-03-21T09:46:36.568Z,3.67
2023-03-21T09:49:10.576Z,2.90
2023-03-21T09:51:48.815Z,4.10
2023-03-21T09:54:26.922Z,4.45
2023-03-21T09:56:58.124Z,4.57
2023-03-21T09:59:40.160Z,4.47
2023-03-21T10:02:47.154Z,4.07
2023-03-21T10:05:19.915Z,4.57
2023-03-21T10:07:56.718Z,3.75
2023-03-21T10:10:28.352Z,4.07
2023-03-21T10:12:56.534Z,3.10
2023-03-21T10:15:26.088Z,4.13
2023-03-21T10:18:02.813Z,5.03
2023-03-21T10:20:35.438Z,4.45
2023-03-21T10:23:06.627Z,4.43
2023-03-21T10:25:36.914Z,3.78
2023-03-21T10:28:07.104Z,3.85
2023-03-21T10:30:50.723Z,3.40
2023-03-21T10:33:20.776Z,3.85
2023-03-21T10:35:53.343Z,4.80
2023-03-21T10:38:23.045Z,3.10
2023-03-21T10:40:49.484Z,3.95
2023-03-21T10:43:29.872Z,3.20
2023-03-21T10:45:57.506Z,3.90
2023-03-21T10:48:24.737Z,3.40
2023-03-21T10:50:55.683Z,4.00
2023-03-21T10:53:35.789Z,4.05
2023-03-21T10:56:06.559Z,3.87
2023-03-21T10:58:39.505Z,3.85
2023-03-21T11:01:10.412Z,3.75
2023-03-21T11:03:43.377Z,3.58
2023-03-21T11:06:22.119Z,2.83
2023-03-21T11:09:00.400Z,3.03
2023-03-21T11:11:33.033Z,2.65
2023-03-21T11:14:07.237Z,3.30
2023-03-21T11:16:41.696Z,2.90
2023-03-21T11:19:31.725Z,2.85
2023-03-21T11:22:00.044Z,3.40
2023-03-21T11:24:30.355Z,3.55
2023-03-21T11:26:58.279Z,3.25
2023-03-21T11:29:36.008Z,3.28
2023-03-21T11:32:27.128Z,3.55
2023-03-21T11:35:20.749Z,3.67
2023-03-21T11:37:53.136Z,3.30
2023-03-21T11:40:23.304Z,2.58
2023-03-21T11:42:58.294Z,3.40
2023-03-21T11:45:27.955Z,3.30
2023-03-21T11:47:56.906Z,2.77
2023-03-21T11:50:26.968Z,3.03
2023-03-21T11:53:11.571Z,2.08
2023-03-21T11:56:02.748Z,3.45
2023-03-21T11:58:45.160Z,2.97
2023-03-21T12:01:20.189Z,2.97
2023-03-21T12:04:02.814Z,2.92
2023-03-21T12:06:41.630Z,2.40
2023-03-21T12:09:22.442Z,2.92
2023-03-21T12:12:18.685Z,2.45
2023-03-21T12:15:06.109Z,2.77
2023-03-21T12:17:59.192Z,2.78
2023-03-21T12:20:47.081Z,2.80
2023-03-21T12:23:35.585Z,3.28
2023-03-21T12:26:24.476Z,2.60
2023-03-21T12:28:57.759Z,2.13
2023-03-21T12:31:45.090Z,2.58
2023-03-21T12:34:20.281Z,2.60
2023-03-21T12:37:09.830Z,3.33
2023-03-21T12:39:39.548Z,2.70
2023-03-21T12:42:37.014Z,3.13
2023-03-21T12:45:15.857Z,3.22
2023-03-21T12:47:48.619Z,3.20
2023-03-21T12:50:21.583Z,4.43
2023-03-21T12:52:54.026Z,2.45
2023-03-21T12:55:25.670Z,5.03
2023-03-21T12:58:10.096Z,3.80
2023-03-21T13:00:43.491Z,2.95
2023-03-21T13:03:20.971Z,3.15
2023-03-21T13:05:58.997Z,2.70
2023-03-21T13:08:37.305Z,3.77
2023-03-21T13:11:06.575Z,3.10
2023-03-21T13:13:47.545Z,3.08
2023-03-21T13:16:16.671Z,3.10
2023-03-21T13:18:57.355Z,3.88
2023-03-21T13:21:56.598Z,3.80
2023-03-21T13:24:38.238Z,4.88
2023-03-21T13:27:21.730Z,4.30
2023-03-21T13:29:51.718Z,3.95
2023-03-21T13:32:36.002Z,4.43
2023-03-21T13:35:17.765Z,3.40
2023-03-21T13:37:58.078Z,3.83
2023-03-21T13:40:35.286Z,4.03
2023-03-21T13:43:03.626Z,3.60
2023-03-21T13:45:45.140Z,4.18
2023-03-21T13:49:04.172Z,3.30
2023-03-21T13:51:36.363Z,5.22
2023-03-21T13:54:08.904Z,4.40
2023-03-21T13:56:47.233Z,4.75
2023-03-21T13:59:38.773Z,3.72
2023-03-21T14:02:31.722Z,4.47
2023-03-21T14:05:07.770Z,3.60
2023-03-21T14:07:42.327Z,3.03
2023-03-21T14:10:20.271Z,3.00
2023-03-21T14:12:48.202Z,3.63
2023-03-21T14:15:27.528Z,3.57
2023-03-21T14:18:16.002Z,3.72
2023-03-21T14:20:56.101Z,4.18
2023-03-21T14:23:23.326Z,3.63
2023-03-21T14:25:50.970Z,3.20
2023-03-21T14:28:32.820Z,4.07
2023-03-21T14:31:00.919Z,4.55
2023-03-21T14:33:40.157Z,3.70
2023-03-21T14:36:13.453Z,4.57
2023-03-21T14:38:40.625Z,4.70
2023-03-21T14:41:22.375Z,3.90
2023-03-21T14:44:11.692Z,3.50
2023-03-21T14:46:39.222Z,3.50
2023-03-21T14:49:36.085Z,3.60
2023-03-21T14:52:07.854Z,3.95
2023-03-21T14:54:34.305Z,3.77
2023-03-21T14:57:03.648Z,3.53
2023-03-21T14:59:34.240Z,3.70
2023-03-21T15:02:04.633Z,3.10
2023-03-21T15:04:32.079Z,4.20
2023-03-21T15:07:02.079Z,3.57
2023-03-21T15:09:31.174Z,3.42
2023-03-21T15:11:58.389Z,4.10
2023-03-21T15:14:30.007Z,4.15
2023-03-21T15:16:58.641Z,4.25
2023-03-21T15:19:30.020Z,4.13
2023-03-21T15:22:02.141Z,5.15
2023-03-21T15:24:36.889Z,4.85
2023-03-21T15:27:12.419Z,3.45
2023-03-21T15:29:39.315Z,3.83
2023-03-21T15:32:12.616Z,3.27
2023-03-21T15:34:39.059Z,3.38
2023-03-21T15:37:07.928Z,4.47
2023-03-21T15:39:36.299Z,4.38
2023-03-21T15:42:25.454Z,4.18
2023-03-21T15:44:55.054Z,4.60
2023-03-21T15:47:52.311Z,3.97
2023-03-21T15:50:24.941Z,3.45
2023-03-21T15:52:52.517Z,4.40
2023-03-21T15:55:25.920Z,4.45
2023-03-21T15:57:55.347Z,4.13
2023-03-21T16:00:49.784Z,3.88
2023-03-21T16:03:21.477Z,3.58
2023-03-21T16:06:12.527Z,4.18
2023-03-21T16:08:46.187Z,4.10
2023-03-21T16:11:28.211Z,3.27
2023-03-21T16:13:56.185Z,3.85
2023-03-21T16:16:23.863Z,3.75
2023-03-21T16:18:51.621Z,4.28
2023-03-21T16:21:20.930Z,4.10
2023-03-21T16:23:48.370Z,4.50
2023-03-21T16:26:17.688Z,4.68
2023-03-21T16:28:45.432Z,3.92
2023-03-21T16:31:14.427Z,3.83
2023-03-21T16:33:41.202Z,4.32
2023-03-21T16:36:13.634Z,3.87
2023-03-21T16:38:39.961Z,5.28
2023-03-21T16:41:10.864Z,6.10
2023-03-21T16:43:42.738Z,4.68
2023-03-21T16:46:17.351Z,4.72
2023-03-21T16:48:46.124Z,4.10
2023-03-21T16:51:17.918Z,3.63
2023-03-21T16:53:45.214Z,3.78
2023-03-21T16:56:19.296Z,4.25
2023-03-21T16:58:45.862Z,4.82
2023-03-21T17:01:19.185Z,3.10
2023-03-21T17:03:47.356Z,2.80
2023-03-21T17:06:19.321Z,2.70
2023-03-21T17:08:46.727Z,2.90
2023-03-21T17:11:20.004Z,3.20
2023-03-21T17:13:48.030Z,3.80
2023-03-21T17:16:17.016Z,3.75
2023-03-21T17:18:44.259Z,3.28
2023-03-21T17:21:16.372Z,3.20
2023-03-21T17:23:43.340Z,3.20
2023-03-21T17:26:11.970Z,3.40
2023-03-21T17:28:39.012Z,3.65
2023-03-21T17:31:19.733Z,3.30
2023-03-21T17:33:46.250Z,3.85
2023-03-21T17:36:20.541Z,4.45
2023-03-21T17:38:47.046Z,3.50
2023-03-21T17:41:16.408Z,4.93
2023-03-21T17:43:43.426Z,4.70
2023-03-21T17:46:14.111Z,3.75
2023-03-21T17:48:41.106Z,3.90
2023-03-21T17:51:08.485Z,3.90
2023-03-21T17:53:34.939Z,3.17
2023-03-21T17:56:01.313Z,3.60
2023-03-21T17:58:28.378Z,3.45
2023-03-21T18:00:54.812Z,3.28
2023-03-21T18:03:21.208Z,4.10
2023-03-21T18:05:47.642Z,3.20
2023-03-21T18:08:14.143Z,2.92
2023-03-21T18:10:41.953Z,2.92
2023-03-21T18:13:08.651Z,2.85
2023-03-21T18:15:38.101Z,3.00
2023-03-21T18:18:05.439Z,2.40
2023-03-21T18:23:19.260Z,3.38
2023-03-21T18:25:45.783Z,3.40
2023-03-21T18:28:13.006Z,2.50
2023-03-21T18:31:07.072Z,3.28
2023-03-21T18:33:28.135Z,2.67
2023-03-21T18:35:59.146Z,2.75
2023-03-21T18:38:27.339Z,2.95
2023-03-21T18:40:54.462Z,2.73
2023-03-21T18:44:00.765Z,3.40
2023-03-21T18:46:07.683Z,3.22
2023-03-21T18:48:35.645Z,3.15
2023-03-21T18:51:03.338Z,2.95
2023-03-21T18:53:29.908Z,3.87
2023-03-21T18:55:57.373Z,4.00
2023-03-21T18:58:23.955Z,3.50
2023-03-21T19:00:51.584Z,3.92
2023-03-21T19:03:32.126Z,4.80
2023-03-21T19:06:01.517Z,4.27
2023-03-21T19:08:28.039Z,4.07
2023-03-21T19:10:54.538Z,4.18
2023-03-21T19:13:21.273Z,4.13
2023-03-21T19:15:49.548Z,3.58
2023-03-21T19:21:03.493Z,4.20
2023-03-21T19:23:40.908Z,4.07
2023-03-21T19:26:16.229Z,4.50
2023-03-21T19:28:42.628Z,4.93
2023-03-21T19:31:09.086Z,5.03
2023-03-21T19:33:35.508Z,5.93
2023-03-21T19:36:15.146Z,4.95
2023-03-21T19:38:44.441Z,4.38
2023-03-21T19:41:10.993Z,4.63
2023-03-21T19:43:37.340Z,4.27
2023-03-21T19:46:03.960Z,4.28
2023-03-21T19:48:30.746Z,4.68
2023-03-21T19:53:43.839Z,4.30
2023-03-21T19:56:20.764Z,4.47
2023-03-21T19:58:49.404Z,4.00
2023-03-21T20:01:16.267Z,4.70
2023-03-21T20:03:44.274Z,4.85
2023-03-21T20:06:11.698Z,4.80
2023-03-21T20:09:05.452Z,4.53
2023-03-21T20:11:24.631Z,5.30
2023-03-21T20:13:51.194Z,5.88
2023-03-21T20:16:18.317Z,3.55
2023-03-21T20:18:45.472Z,4.50
2023-03-21T20:21:17.486Z,4.37
2023-03-21T20:23:49.125Z,5.03
2023-03-21T20:26:16.719Z,5.95
2023-03-21T20:29:01.204Z,5.93
2023-03-21T20:31:32.007Z,4.82
2023-03-21T20:33:58.656Z,5.77
2023-03-21T20:36:43.006Z,6.10
2023-03-21T20:39:09.707Z,4.95
2023-03-21T20:41:36.322Z,5.38
2023-03-21T20:46:50.044Z,5.03
2023-03-21T20:49:16.719Z,4.75
2023-03-21T20:54:29.940Z,4.57
2023-03-21T20:56:57.166Z,4.57
2023-03-21T20:59:27.650Z,4.00
2023-03-21T21:01:57.171Z,3.70
2023-03-21T21:04:42.829Z,3.70
2023-03-21T21:07:15.958Z,3.95
2023-03-21T21:09:45.849Z,3.20
2023-03-21T21:12:14.526Z,3.20
2023-03-21T21:14:42.171Z,2.90
2023-03-21T21:17:46.564Z,3.00
2023-03-21T21:19:56.132Z,3.05
2023-03-21T21:22:22.505Z,3.08
2023-03-21T21:24:48.842Z,2.60
2023-03-21T21:27:15.187Z,3.17
2023-03-21T21:29:43.213Z,2.55
2023-03-21T21:32:10.045Z,2.80
2023-03-21T21:34:37.020Z,2.45
2023-03-21T21:37:03.393Z,3.07
2023-03-21T21:39:31.726Z,3.15
2023-03-21T21:41:58.100Z,3.45
2023-03-21T21:44:24.483Z,2.72
2023-03-21T21:46:51.359Z,4.05
2023-03-21T21:49:17.773Z,3.20
2023-03-21T21:51:47.750Z,4.13
2023-03-21T21:54:18.093Z,4.10
2023-03-21T21:56:48.096Z,3.72
2023-03-21T21:59:18.256Z,3.67
2023-03-21T22:01:46.437Z,3.57
2023-03-21T22:04:14.312Z,2.92
2023-03-21T22:06:42.164Z,2.80
2023-03-21T22:09:09.064Z,2.75
2023-03-21T22:11:35.706Z,2.88
2023-03-21T22:14:02.414Z,2.23
2023-03-21T22:16:28.923Z,2.60
2023-03-21T22:18:55.355Z,1.70
2023-03-21T22:21:21.849Z,1.80
2023-03-21T22:23:48.311Z,1.83
2023-03-21T22:26:15.067Z,1.27
2023-03-21T22:28:43.039Z,1.23
2023-03-21T22:31:11.881Z,0.77
2023-03-21T22:33:38.312Z,0.95
2023-03-21T22:36:04.987Z,1.80
2023-03-21T22:38:34.338Z,1.10
2023-03-21T22:41:03.051Z,1.00
2023-03-21T22:43:30.167Z,0.85
2023-03-21T22:45:56.640Z,1.20
2023-03-21T22:48:23.206Z,1.80
2023-03-21T22:50:49.792Z,1.10
2023-03-21T22:53:16.353Z,0.77
2023-03-21T22:55:42.834Z,0.82
2023-03-21T22:58:09.193Z,1.40
2023-03-21T23:00:35.683Z,0.75
2023-03-21T23:03:02.069Z,0.87
2023-03-21T23:05:28.640Z,1.35
2023-03-21T23:07:55.123Z,0.55
2023-03-21T23:10:21.625Z,1.13
2023-03-21T23:12:48.583Z,1.10
2023-03-21T23:15:15.180Z,1.00
2023-03-21T23:17:43.968Z,0.75
2023-03-21T23:20:10.866Z,0.50
2023-03-21T23:22:37.382Z,0.68
2023-03-21T23:25:04.197Z,0.95
2023-03-21T23:27:30.683Z,0.60
2023-03-21T23:29:57.203Z,0.40
2023-03-21T23:32:24.123Z,0.75
2023-03-21T23:34:50.628Z,0.45
2023-03-21T23:37:17.068Z,0.40
2023-03-21T23:39:45.199Z,0.37
2023-03-21T23:42:11.592Z,0.30
2023-03-21T23:44:37.983Z,0.20
2023-03-21T23:47:04.447Z,0.40
2023-03-21T23:49:33.636Z,0.35
2023-03-21T23:52:00.215Z,0.40
2023-03-21T23:54:26.835Z,0.73
2023-03-21T23:56:53.175Z,0.20
2023-03-21T23:59:19.502Z,0.52
